sensor_id;sensor_type;location;lat;lon;timestamp;temperature;humidity
55203;DHT22;41077;52.956;6.796;2023-04-15T00:02:17;6.50;99.90
55203;DHT22;41077;52.956;6.796;2023-04-15T00:04:46;6.50;99.90
55203;DHT22;41077;52.956;6.796;2023-04-15T00:07:13;6.50;99.90
55203;DHT22;41077;52.956;6.796;2023-04-15T00:09:43;6.50;99.90
55203;DHT22;41077;52.956;6.796;2023-04-15T00:12:10;6.40;99.90
55203;DHT22;41077;52.956;6.796;2023-04-15T00:14:36;6.50;99.90
55203;DHT22;41077;52.956;6.796;2023-04-15T00:17:03;6.40;99.90
55203;DHT22;41077;52.956;6.796;2023-04-15T00:19:29;6.40;99.90
55203;DHT22;41077;52.956;6.796;2023-04-15T00:21:55;6.40;99.90
55203;DHT22;41077;52.956;6.796;2023-04-15T00:24:22;6.40;99.90
55203;DHT22;41077;52.956;6.796;2023-04-15T00:26:48;6.30;99.90
55203;DHT22;41077;52.956;6.796;2023-04-15T00:29:13;6.30;99.90
55203;DHT22;41077;52.956;6.796;2023-04-15T00:31:40;6.30;99.90
55203;DHT22;41077;52.956;6.796;2023-04-15T00:34:06;6.30;99.90
55203;DHT22;41077;52.956;6.796;2023-04-15T00:36:32;6.30;99.90
55203;DHT22;41077;52.956;6.796;2023-04-15T00:38:59;6.30;99.90
55203;DHT22;41077;52.956;6.796;2023-04-15T00:41:25;6.20;99.90
55203;DHT22;41077;52.956;6.796;2023-04-15T00:43:51;6.20;99.90
55203;DHT22;41077;52.956;6.796;2023-04-15T00:46:18;6.20;99.90
55203;DHT22;41077;52.956;6.796;2023-04-15T00:48:46;6.10;99.90
55203;DHT22;41077;52.956;6.796;2023-04-15T00:51:12;6.10;99.90
55203;DHT22;41077;52.956;6.796;2023-04-15T00:53:38;6.00;99.90
55203;DHT22;41077;52.956;6.796;2023-04-15T00:56:05;6.00;99.90
55203;DHT22;41077;52.956;6.796;2023-04-15T00:58:31;6.00;99.90
55203;DHT22;41077;52.956;6.796;2023-04-15T01:00:57;5.90;99.90
55203;DHT22;41077;52.956;6.796;2023-04-15T01:03:23;5.90;99.90
55203;DHT22;41077;52.956;6.796;2023-04-15T01:05:49;5.90;99.90
55203;DHT22;41077;52.956;6.796;2023-04-15T01:08:28;5.80;99.90
55203;DHT22;41077;52.956;6.796;2023-04-15T01:10:58;5.80;99.90
55203;DHT22;41077;52.956;6.796;2023-04-15T01:13:25;5.80;99.90
55203;DHT22;41077;52.956;6.796;2023-04-15T01:15:52;5.80;99.90
55203;DHT22;41077;52.956;6.796;2023-04-15T01:18:18;5.80;99.90
55203;DHT22;41077;52.956;6.796;2023-04-15T01:20:44;5.70;99.90
55203;DHT22;41077;52.956;6.796;2023-04-15T01:23:11;5.70;99.90
55203;DHT22;41077;52.956;6.796;2023-04-15T01:25:37;5.70;99.90
55203;DHT22;41077;52.956;6.796;2023-04-15T01:28:04;5.70;99.90
55203;DHT22;41077;52.956;6.796;2023-04-15T01:30:33;5.60;99.90
55203;DHT22;41077;52.956;6.796;2023-04-15T01:32:59;5.60;99.90
55203;DHT22;41077;52.956;6.796;2023-04-15T01:35:25;5.60;99.90
55203;DHT22;41077;52.956;6.796;2023-04-15T01:37:52;5.50;99.90
55203;DHT22;41077;52.956;6.796;2023-04-15T01:40:19;5.50;99.90
55203;DHT22;41077;52.956;6.796;2023-04-15T01:42:45;5.50;99.90
55203;DHT22;41077;52.956;6.796;2023-04-15T01:45:11;5.50;99.90
55203;DHT22;41077;52.956;6.796;2023-04-15T01:47:38;5.50;99.90
55203;DHT22;41077;52.956;6.796;2023-04-15T01:50:04;5.40;99.90
55203;DHT22;41077;52.956;6.796;2023-04-15T01:52:31;5.40;99.90
55203;DHT22;41077;52.956;6.796;2023-04-15T01:54:57;5.40;99.90
55203;DHT22;41077;52.956;6.796;2023-04-15T01:57:22;5.40;99.90
55203;DHT22;41077;52.956;6.796;2023-04-15T01:59:48;5.30;99.90
55203;DHT22;41077;52.956;6.796;2023-04-15T02:02:14;5.20;99.90
55203;DHT22;41077;52.956;6.796;2023-04-15T02:04:39;5.20;99.90
55203;DHT22;41077;52.956;6.796;2023-04-15T02:07:05;5.20;99.90
55203;DHT22;41077;52.956;6.796;2023-04-15T02:09:31;5.20;99.90
55203;DHT22;41077;52.956;6.796;2023-04-15T02:11:57;5.20;99.90
55203;DHT22;41077;52.956;6.796;2023-04-15T02:14:23;5.20;99.90
55203;DHT22;41077;52.956;6.796;2023-04-15T02:16:48;5.10;99.90
55203;DHT22;41077;52.956;6.796;2023-04-15T02:19:14;5.10;99.90
55203;DHT22;41077;52.956;6.796;2023-04-15T02:21:40;5.10;99.90
55203;DHT22;41077;52.956;6.796;2023-04-15T02:24:06;5.10;99.90
55203;DHT22;41077;52.956;6.796;2023-04-15T02:26:31;5.10;99.90
55203;DHT22;41077;52.956;6.796;2023-04-15T02:28:58;5.00;99.90
55203;DHT22;41077;52.956;6.796;2023-04-15T02:31:24;5.00;99.90
55203;DHT22;41077;52.956;6.796;2023-04-15T02:33:50;5.00;99.90
55203;DHT22;41077;52.956;6.796;2023-04-15T02:36:16;5.00;99.90
55203;DHT22;41077;52.956;6.796;2023-04-15T02:38:42;5.00;99.90
55203;DHT22;41077;52.956;6.796;2023-04-15T02:41:10;4.90;99.90
55203;DHT22;41077;52.956;6.796;2023-04-15T02:43:36;4.90;99.90
55203;DHT22;41077;52.956;6.796;2023-04-15T02:46:04;4.90;99.90
55203;DHT22;41077;52.956;6.796;2023-04-15T02:48:30;4.90;99.90
55203;DHT22;41077;52.956;6.796;2023-04-15T02:51:15;4.90;99.90
55203;DHT22;41077;52.956;6.796;2023-04-15T02:53:41;4.90;99.90
55203;DHT22;41077;52.956;6.796;2023-04-15T02:56:07;4.90;99.90
55203;DHT22;41077;52.956;6.796;2023-04-15T02:58:34;4.80;99.90
55203;DHT22;41077;52.956;6.796;2023-04-15T03:01:00;4.80;99.90
55203;DHT22;41077;52.956;6.796;2023-04-15T03:03:26;4.80;99.90
55203;DHT22;41077;52.956;6.796;2023-04-15T03:05:53;4.70;99.90
55203;DHT22;41077;52.956;6.796;2023-04-15T03:08:19;4.70;99.90
55203;DHT22;41077;52.956;6.796;2023-04-15T03:10:46;4.70;99.90
55203;DHT22;41077;52.956;6.796;2023-04-15T03:13:12;4.70;99.90
55203;DHT22;41077;52.956;6.796;2023-04-15T03:15:37;4.60;99.90
55203;DHT22;41077;52.956;6.796;2023-04-15T03:18:03;4.60;99.90
55203;DHT22;41077;52.956;6.796;2023-04-15T03:20:29;4.60;99.90
55203;DHT22;41077;52.956;6.796;2023-04-15T03:22:55;4.60;99.90
55203;DHT22;41077;52.956;6.796;2023-04-15T03:25:20;4.60;99.90
55203;DHT22;41077;52.956;6.796;2023-04-15T03:27:46;4.60;99.90
55203;DHT22;41077;52.956;6.796;2023-04-15T03:30:12;4.60;99.90
55203;DHT22;41077;52.956;6.796;2023-04-15T03:32:38;4.60;99.90
55203;DHT22;41077;52.956;6.796;2023-04-15T03:35:04;4.60;99.90
55203;DHT22;41077;52.956;6.796;2023-04-15T03:37:29;4.60;99.90
55203;DHT22;41077;52.956;6.796;2023-04-15T03:39:55;4.50;99.90
55203;DHT22;41077;52.956;6.796;2023-04-15T03:42:21;4.50;99.90
55203;DHT22;41077;52.956;6.796;2023-04-15T03:44:46;4.50;99.90
55203;DHT22;41077;52.956;6.796;2023-04-15T03:47:12;4.50;99.90
55203;DHT22;41077;52.956;6.796;2023-04-15T03:49:38;4.50;99.90
55203;DHT22;41077;52.956;6.796;2023-04-15T03:52:04;4.40;99.90
55203;DHT22;41077;52.956;6.796;2023-04-15T03:54:30;4.40;99.90
55203;DHT22;41077;52.956;6.796;2023-04-15T03:56:56;4.40;99.90
55203;DHT22;41077;52.956;6.796;2023-04-15T03:59:22;4.40;99.90
55203;DHT22;41077;52.956;6.796;2023-04-15T04:01:48;4.30;99.90
55203;DHT22;41077;52.956;6.796;2023-04-15T04:04:13;4.30;99.90
55203;DHT22;41077;52.956;6.796;2023-04-15T04:06:39;4.40;99.90
55203;DHT22;41077;52.956;6.796;2023-04-15T04:09:05;4.40;99.90
55203;DHT22;41077;52.956;6.796;2023-04-15T04:11:30;4.30;99.90
55203;DHT22;41077;52.956;6.796;2023-04-15T04:13:57;4.30;99.90
55203;DHT22;41077;52.956;6.796;2023-04-15T04:16:23;4.30;99.90
55203;DHT22;41077;52.956;6.796;2023-04-15T04:18:49;4.30;99.90
55203;DHT22;41077;52.956;6.796;2023-04-15T04:21:15;4.20;99.90
55203;DHT22;41077;52.956;6.796;2023-04-15T04:23:41;4.20;99.90
55203;DHT22;41077;52.956;6.796;2023-04-15T04:26:06;4.20;99.90
55203;DHT22;41077;52.956;6.796;2023-04-15T04:28:32;4.20;99.90
55203;DHT22;41077;52.956;6.796;2023-04-15T04:30:59;4.10;99.90
55203;DHT22;41077;52.956;6.796;2023-04-15T04:33:25;4.10;99.90
55203;DHT22;41077;52.956;6.796;2023-04-15T04:35:51;4.10;99.90
55203;DHT22;41077;52.956;6.796;2023-04-15T04:38:16;4.10;99.90
55203;DHT22;41077;52.956;6.796;2023-04-15T04:40:42;4.10;99.90
55203;DHT22;41077;52.956;6.796;2023-04-15T04:43:08;4.00;99.90
55203;DHT22;41077;52.956;6.796;2023-04-15T04:45:34;4.00;99.90
55203;DHT22;41077;52.956;6.796;2023-04-15T04:48:00;4.00;99.90
55203;DHT22;41077;52.956;6.796;2023-04-15T04:50:26;4.00;99.90
55203;DHT22;41077;52.956;6.796;2023-04-15T04:52:51;4.00;99.90
55203;DHT22;41077;52.956;6.796;2023-04-15T04:55:17;3.90;99.90
55203;DHT22;41077;52.956;6.796;2023-04-15T04:57:43;3.90;99.90
55203;DHT22;41077;52.956;6.796;2023-04-15T05:00:09;3.90;99.90
55203;DHT22;41077;52.956;6.796;2023-04-15T05:02:35;3.90;99.90
55203;DHT22;41077;52.956;6.796;2023-04-15T05:05:01;3.90;99.90
55203;DHT22;41077;52.956;6.796;2023-04-15T05:07:26;3.90;99.90
55203;DHT22;41077;52.956;6.796;2023-04-15T05:09:52;3.90;99.90
55203;DHT22;41077;52.956;6.796;2023-04-15T05:12:18;3.90;99.90
55203;DHT22;41077;52.956;6.796;2023-04-15T05:14:43;3.90;99.90
55203;DHT22;41077;52.956;6.796;2023-04-15T05:17:11;4.00;99.90
55203;DHT22;41077;52.956;6.796;2023-04-15T05:19:37;4.10;99.90
55203;DHT22;41077;52.956;6.796;2023-04-15T05:22:02;4.20;99.90
55203;DHT22;41077;52.956;6.796;2023-04-15T05:24:28;4.20;99.90
55203;DHT22;41077;52.956;6.796;2023-04-15T05:26:54;4.30;99.90
55203;DHT22;41077;52.956;6.796;2023-04-15T05:29:20;4.30;99.90
55203;DHT22;41077;52.956;6.796;2023-04-15T05:31:46;4.30;99.90
55203;DHT22;41077;52.956;6.796;2023-04-15T05:34:12;4.30;99.90
55203;DHT22;41077;52.956;6.796;2023-04-15T05:36:40;4.40;99.90
55203;DHT22;41077;52.956;6.796;2023-04-15T05:39:06;4.40;99.90
55203;DHT22;41077;52.956;6.796;2023-04-15T05:41:31;4.40;99.90
55203;DHT22;41077;52.956;6.796;2023-04-15T05:43:57;4.40;99.90
55203;DHT22;41077;52.956;6.796;2023-04-15T05:46:23;4.40;99.90
55203;DHT22;41077;52.956;6.796;2023-04-15T05:48:48;4.40;99.90
55203;DHT22;41077;52.956;6.796;2023-04-15T05:51:14;4.50;99.90
55203;DHT22;41077;52.956;6.796;2023-04-15T05:53:40;4.50;99.90
55203;DHT22;41077;52.956;6.796;2023-04-15T05:56:06;4.60;99.90
55203;DHT22;41077;52.956;6.796;2023-04-15T05:58:32;4.60;99.90
55203;DHT22;41077;52.956;6.796;2023-04-15T06:00:58;4.60;99.90
55203;DHT22;41077;52.956;6.796;2023-04-15T06:03:23;4.70;99.90
55203;DHT22;41077;52.956;6.796;2023-04-15T06:05:49;5.00;99.90
55203;DHT22;41077;52.956;6.796;2023-04-15T06:08:15;5.10;99.90
55203;DHT22;41077;52.956;6.796;2023-04-15T06:10:41;5.20;99.90
55203;DHT22;41077;52.956;6.796;2023-04-15T06:13:07;5.40;99.90
55203;DHT22;41077;52.956;6.796;2023-04-15T06:15:32;5.40;99.90
55203;DHT22;41077;52.956;6.796;2023-04-15T06:17:58;5.50;99.90
55203;DHT22;41077;52.956;6.796;2023-04-15T06:20:24;5.70;99.90
55203;DHT22;41077;52.956;6.796;2023-04-15T06:22:50;5.80;99.90
55203;DHT22;41077;52.956;6.796;2023-04-15T06:25:15;6.00;99.90
55203;DHT22;41077;52.956;6.796;2023-04-15T06:27:41;6.10;99.90
55203;DHT22;41077;52.956;6.796;2023-04-15T06:30:07;6.20;99.90
55203;DHT22;41077;52.956;6.796;2023-04-15T06:32:33;6.30;99.90
55203;DHT22;41077;52.956;6.796;2023-04-15T06:34:59;6.30;99.90
55203;DHT22;41077;52.956;6.796;2023-04-15T06:37:24;6.40;99.90
55203;DHT22;41077;52.956;6.796;2023-04-15T06:39:50;6.50;99.90
55203;DHT22;41077;52.956;6.796;2023-04-15T06:42:16;6.60;99.90
55203;DHT22;41077;52.956;6.796;2023-04-15T06:44:42;6.60;99.90
55203;DHT22;41077;52.956;6.796;2023-04-15T06:47:07;6.70;99.90
55203;DHT22;41077;52.956;6.796;2023-04-15T06:49:33;6.80;99.90
55203;DHT22;41077;52.956;6.796;2023-04-15T06:52:00;6.80;99.90
55203;DHT22;41077;52.956;6.796;2023-04-15T06:54:26;6.90;99.90
55203;DHT22;41077;52.956;6.796;2023-04-15T06:56:52;6.90;99.90
55203;DHT22;41077;52.956;6.796;2023-04-15T06:59:17;7.00;99.90
55203;DHT22;41077;52.956;6.796;2023-04-15T07:01:43;7.10;99.90
55203;DHT22;41077;52.956;6.796;2023-04-15T07:04:09;7.10;99.90
55203;DHT22;41077;52.956;6.796;2023-04-15T07:06:35;7.20;99.90
55203;DHT22;41077;52.956;6.796;2023-04-15T07:09:01;7.30;99.90
55203;DHT22;41077;52.956;6.796;2023-04-15T07:11:27;7.30;99.90
55203;DHT22;41077;52.956;6.796;2023-04-15T07:13:53;7.40;99.90
55203;DHT22;41077;52.956;6.796;2023-04-15T07:16:19;7.40;99.90
55203;DHT22;41077;52.956;6.796;2023-04-15T07:18:45;7.50;99.90
55203;DHT22;41077;52.956;6.796;2023-04-15T07:21:11;7.50;99.90
55203;DHT22;41077;52.956;6.796;2023-04-15T07:23:37;7.60;99.90
55203;DHT22;41077;52.956;6.796;2023-04-15T07:26:02;7.60;99.90
55203;DHT22;41077;52.956;6.796;2023-04-15T07:28:28;7.70;99.90
55203;DHT22;41077;52.956;6.796;2023-04-15T07:30:55;7.70;99.90
55203;DHT22;41077;52.956;6.796;2023-04-15T07:33:24;7.80;99.90
55203;DHT22;41077;52.956;6.796;2023-04-15T07:35:49;7.80;99.90
55203;DHT22;41077;52.956;6.796;2023-04-15T07:38:15;7.90;99.90
55203;DHT22;41077;52.956;6.796;2023-04-15T07:40:41;7.90;99.90
55203;DHT22;41077;52.956;6.796;2023-04-15T07:43:07;8.10;99.90
55203;DHT22;41077;52.956;6.796;2023-04-15T07:45:33;8.10;99.90
55203;DHT22;41077;52.956;6.796;2023-04-15T07:48:00;8.20;99.90
55203;DHT22;41077;52.956;6.796;2023-04-15T07:50:27;8.20;99.90
55203;DHT22;41077;52.956;6.796;2023-04-15T07:52:53;8.30;99.90
55203;DHT22;41077;52.956;6.796;2023-04-15T07:55:19;8.30;99.90
55203;DHT22;41077;52.956;6.796;2023-04-15T07:57:47;8.40;99.90
55203;DHT22;41077;52.956;6.796;2023-04-15T08:00:14;8.50;99.90
55203;DHT22;41077;52.956;6.796;2023-04-15T08:02:40;8.50;99.90
55203;DHT22;41077;52.956;6.796;2023-04-15T08:05:08;8.60;99.90
55203;DHT22;41077;52.956;6.796;2023-04-15T08:07:34;8.70;99.90
55203;DHT22;41077;52.956;6.796;2023-04-15T08:10:00;8.80;99.90
55203;DHT22;41077;52.956;6.796;2023-04-15T08:12:26;8.90;99.90
55203;DHT22;41077;52.956;6.796;2023-04-15T08:14:52;8.90;99.90
55203;DHT22;41077;52.956;6.796;2023-04-15T08:17:19;8.90;99.90
55203;DHT22;41077;52.956;6.796;2023-04-15T08:19:45;8.90;99.90
55203;DHT22;41077;52.956;6.796;2023-04-15T08:22:13;9.00;99.90
55203;DHT22;41077;52.956;6.796;2023-04-15T08:24:38;9.00;99.90
55203;DHT22;41077;52.956;6.796;2023-04-15T08:27:04;8.90;99.90
55203;DHT22;41077;52.956;6.796;2023-04-15T08:29:31;9.00;99.90
55203;DHT22;41077;52.956;6.796;2023-04-15T08:31:58;9.00;99.90
55203;DHT22;41077;52.956;6.796;2023-04-15T08:34:25;8.90;99.90
55203;DHT22;41077;52.956;6.796;2023-04-15T08:36:50;8.90;99.90
55203;DHT22;41077;52.956;6.796;2023-04-15T08:39:16;8.90;99.90
55203;DHT22;41077;52.956;6.796;2023-04-15T08:41:47;8.90;99.90
55203;DHT22;41077;52.956;6.796;2023-04-15T08:44:17;8.90;99.90
55203;DHT22;41077;52.956;6.796;2023-04-15T08:46:43;8.90;99.90
55203;DHT22;41077;52.956;6.796;2023-04-15T08:49:12;8.90;99.90
55203;DHT22;41077;52.956;6.796;2023-04-15T08:51:39;8.80;99.90
55203;DHT22;41077;52.956;6.796;2023-04-15T08:54:06;8.90;99.90
55203;DHT22;41077;52.956;6.796;2023-04-15T08:56:33;8.90;99.90
55203;DHT22;41077;52.956;6.796;2023-04-15T08:58:59;8.90;99.90
55203;DHT22;41077;52.956;6.796;2023-04-15T09:01:25;8.90;99.90
55203;DHT22;41077;52.956;6.796;2023-04-15T09:03:51;8.90;99.90
55203;DHT22;41077;52.956;6.796;2023-04-15T09:06:20;8.90;99.90
55203;DHT22;41077;52.956;6.796;2023-04-15T09:08:46;9.00;99.90
55203;DHT22;41077;52.956;6.796;2023-04-15T09:11:12;9.00;99.90
55203;DHT22;41077;52.956;6.796;2023-04-15T09:13:38;9.00;99.90
55203;DHT22;41077;52.956;6.796;2023-04-15T09:16:05;9.00;99.90
55203;DHT22;41077;52.956;6.796;2023-04-15T09:18:33;9.20;99.90
55203;DHT22;41077;52.956;6.796;2023-04-15T09:21:10;9.20;99.90
55203;DHT22;41077;52.956;6.796;2023-04-15T09:23:37;9.30;99.90
55203;DHT22;41077;52.956;6.796;2023-04-15T09:26:04;9.40;99.90
55203;DHT22;41077;52.956;6.796;2023-04-15T09:28:30;9.30;99.90
55203;DHT22;41077;52.956;6.796;2023-04-15T09:30:57;9.30;99.90
55203;DHT22;41077;52.956;6.796;2023-04-15T09:33:24;9.30;99.90
55203;DHT22;41077;52.956;6.796;2023-04-15T09:36:02;9.30;99.90
55203;DHT22;41077;52.956;6.796;2023-04-15T09:38:30;9.30;99.90
55203;DHT22;41077;52.956;6.796;2023-04-15T09:40:57;9.30;99.90
55203;DHT22;41077;52.956;6.796;2023-04-15T09:43:35;9.30;99.90
55203;DHT22;41077;52.956;6.796;2023-04-15T09:46:02;9.30;99.90
55203;DHT22;41077;52.956;6.796;2023-04-15T09:48:27;9.30;99.90
55203;DHT22;41077;52.956;6.796;2023-04-15T09:50:59;9.30;99.90
55203;DHT22;41077;52.956;6.796;2023-04-15T09:53:26;9.30;99.90
55203;DHT22;41077;52.956;6.796;2023-04-15T09:55:57;9.30;99.90
55203;DHT22;41077;52.956;6.796;2023-04-15T09:58:25;9.30;99.90
55203;DHT22;41077;52.956;6.796;2023-04-15T10:00:52;9.40;99.90
55203;DHT22;41077;52.956;6.796;2023-04-15T10:03:25;9.40;99.90
55203;DHT22;41077;52.956;6.796;2023-04-15T10:05:53;9.50;99.90
55203;DHT22;41077;52.956;6.796;2023-04-15T10:08:21;9.60;99.90
55203;DHT22;41077;52.956;6.796;2023-04-15T10:10:48;9.60;99.90
55203;DHT22;41077;52.956;6.796;2023-04-15T10:13:17;9.60;99.90
55203;DHT22;41077;52.956;6.796;2023-04-15T10:15:44;9.60;99.90
55203;DHT22;41077;52.956;6.796;2023-04-15T10:18:18;9.60;99.90
55203;DHT22;41077;52.956;6.796;2023-04-15T10:20:45;9.60;99.90
55203;DHT22;41077;52.956;6.796;2023-04-15T10:23:12;9.60;99.90
55203;DHT22;41077;52.956;6.796;2023-04-15T10:25:38;9.60;99.90
55203;DHT22;41077;52.956;6.796;2023-04-15T10:28:06;9.70;99.90
55203;DHT22;41077;52.956;6.796;2023-04-15T10:30:33;9.70;99.90
55203;DHT22;41077;52.956;6.796;2023-04-15T10:33:00;9.70;99.90
55203;DHT22;41077;52.956;6.796;2023-04-15T10:35:28;9.70;99.90
55203;DHT22;41077;52.956;6.796;2023-04-15T10:37:55;9.70;99.90
55203;DHT22;41077;52.956;6.796;2023-04-15T10:40:31;9.70;99.90
55203;DHT22;41077;52.956;6.796;2023-04-15T10:42:59;9.70;99.90
55203;DHT22;41077;52.956;6.796;2023-04-15T10:45:33;9.80;99.90
55203;DHT22;41077;52.956;6.796;2023-04-15T10:48:06;9.70;99.90
55203;DHT22;41077;52.956;6.796;2023-04-15T10:50:32;9.70;99.90
55203;DHT22;41077;52.956;6.796;2023-04-15T10:53:02;9.70;99.90
55203;DHT22;41077;52.956;6.796;2023-04-15T10:55:31;9.70;99.90
55203;DHT22;41077;52.956;6.796;2023-04-15T10:57:59;9.80;99.90
55203;DHT22;41077;52.956;6.796;2023-04-15T11:00:29;9.90;99.90
55203;DHT22;41077;52.956;6.796;2023-04-15T11:03:08;9.90;99.90
55203;DHT22;41077;52.956;6.796;2023-04-15T11:05:52;10.00;99.90
55203;DHT22;41077;52.956;6.796;2023-04-15T11:08:57;10.00;99.90
55203;DHT22;41077;52.956;6.796;2023-04-15T11:14:29;9.90;99.90
55203;DHT22;41077;52.956;6.796;2023-04-15T11:16:54;10.00;99.90
55203;DHT22;41077;52.956;6.796;2023-04-15T11:19:20;9.90;99.90
55203;DHT22;41077;52.956;6.796;2023-04-15T11:21:46;9.90;99.90
55203;DHT22;41077;52.956;6.796;2023-04-15T11:24:23;9.90;99.90
55203;DHT22;41077;52.956;6.796;2023-04-15T11:26:56;9.90;99.90
55203;DHT22;41077;52.956;6.796;2023-04-15T11:29:30;9.90;99.90
55203;DHT22;41077;52.956;6.796;2023-04-15T11:32:07;9.90;99.90
55203;DHT22;41077;52.956;6.796;2023-04-15T11:34:33;10.00;99.90
55203;DHT22;41077;52.956;6.796;2023-04-15T11:37:03;10.10;99.90
55203;DHT22;41077;52.956;6.796;2023-04-15T11:39:30;10.00;99.90
55203;DHT22;41077;52.956;6.796;2023-04-15T11:41:56;10.00;99.90
55203;DHT22;41077;52.956;6.796;2023-04-15T11:44:22;10.00;99.90
55203;DHT22;41077;52.956;6.796;2023-04-15T11:46:47;10.10;99.90
55203;DHT22;41077;52.956;6.796;2023-04-15T11:49:29;10.30;99.90
55203;DHT22;41077;52.956;6.796;2023-04-15T11:51:59;10.40;99.90
55203;DHT22;41077;52.956;6.796;2023-04-15T11:54:25;10.40;99.90
55203;DHT22;41077;52.956;6.796;2023-04-15T11:56:51;10.30;99.90
55203;DHT22;41077;52.956;6.796;2023-04-15T11:59:18;10.20;99.90
55203;DHT22;41077;52.956;6.796;2023-04-15T12:01:44;10.20;99.90
55203;DHT22;41077;52.956;6.796;2023-04-15T12:04:12;10.20;99.90
55203;DHT22;41077;52.956;6.796;2023-04-15T12:06:38;10.10;99.90
55203;DHT22;41077;52.956;6.796;2023-04-15T12:09:11;10.10;99.90
55203;DHT22;41077;52.956;6.796;2023-04-15T12:11:47;10.10;99.90
55203;DHT22;41077;52.956;6.796;2023-04-15T12:14:24;10.10;99.90
55203;DHT22;41077;52.956;6.796;2023-04-15T12:16:52;10.10;99.90
55203;DHT22;41077;52.956;6.796;2023-04-15T12:19:24;10.20;99.90
55203;DHT22;41077;52.956;6.796;2023-04-15T12:21:53;10.20;99.90
55203;DHT22;41077;52.956;6.796;2023-04-15T12:24:21;10.20;99.90
55203;DHT22;41077;52.956;6.796;2023-04-15T12:26:52;10.10;99.90
55203;DHT22;41077;52.956;6.796;2023-04-15T12:29:19;10.10;99.90
55203;DHT22;41077;52.956;6.796;2023-04-15T12:31:58;10.00;99.90
55203;DHT22;41077;52.956;6.796;2023-04-15T12:34:32;10.00;99.90
55203;DHT22;41077;52.956;6.796;2023-04-15T12:37:00;9.80;99.90
55203;DHT22;41077;52.956;6.796;2023-04-15T12:39:29;9.70;99.90
55203;DHT22;41077;52.956;6.796;2023-04-15T12:41:55;9.70;99.90
55203;DHT22;41077;52.956;6.796;2023-04-15T12:44:22;9.70;99.90
55203;DHT22;41077;52.956;6.796;2023-04-15T12:46:49;9.80;99.90
55203;DHT22;41077;52.956;6.796;2023-04-15T12:49:15;9.80;99.90
55203;DHT22;41077;52.956;6.796;2023-04-15T12:51:44;9.80;99.90
55203;DHT22;41077;52.956;6.796;2023-04-15T12:54:10;9.80;99.90
55203;DHT22;41077;52.956;6.796;2023-04-15T12:56:35;9.80;99.90
55203;DHT22;41077;52.956;6.796;2023-04-15T12:59:01;9.70;99.90
55203;DHT22;41077;52.956;6.796;2023-04-15T13:01:27;9.70;99.90
55203;DHT22;41077;52.956;6.796;2023-04-15T13:03:53;9.60;99.90
55203;DHT22;41077;52.956;6.796;2023-04-15T13:06:18;9.60;99.90
55203;DHT22;41077;52.956;6.796;2023-04-15T13:08:44;9.60;99.90
55203;DHT22;41077;52.956;6.796;2023-04-15T13:11:10;9.60;99.90
55203;DHT22;41077;52.956;6.796;2023-04-15T13:13:36;9.50;99.90
55203;DHT22;41077;52.956;6.796;2023-04-15T13:16:01;9.40;99.90
55203;DHT22;41077;52.956;6.796;2023-04-15T13:18:27;9.40;99.90
55203;DHT22;41077;52.956;6.796;2023-04-15T13:20:55;9.40;99.90
55203;DHT22;41077;52.956;6.796;2023-04-15T13:23:21;9.40;99.90
55203;DHT22;41077;52.956;6.796;2023-04-15T13:25:47;9.30;99.90
55203;DHT22;41077;52.956;6.796;2023-04-15T13:28:12;9.20;99.90
55203;DHT22;41077;52.956;6.796;2023-04-15T13:30:38;9.20;99.90
55203;DHT22;41077;52.956;6.796;2023-04-15T13:33:04;9.20;99.90
55203;DHT22;41077;52.956;6.796;2023-04-15T13:35:31;9.20;99.90
55203;DHT22;41077;52.956;6.796;2023-04-15T13:37:57;9.20;99.90
55203;DHT22;41077;52.956;6.796;2023-04-15T13:40:23;9.20;99.90
55203;DHT22;41077;52.956;6.796;2023-04-15T13:42:49;9.20;99.90
55203;DHT22;41077;52.956;6.796;2023-04-15T13:45:16;9.10;99.90
55203;DHT22;41077;52.956;6.796;2023-04-15T13:47:42;9.20;99.90
55203;DHT22;41077;52.956;6.796;2023-04-15T13:50:08;9.10;99.90
55203;DHT22;41077;52.956;6.796;2023-04-15T13:52:33;9.10;99.90
55203;DHT22;41077;52.956;6.796;2023-04-15T13:54:59;9.00;99.90
55203;DHT22;41077;52.956;6.796;2023-04-15T13:57:25;9.00;99.90
55203;DHT22;41077;52.956;6.796;2023-04-15T13:59:51;8.90;99.90
55203;DHT22;41077;52.956;6.796;2023-04-15T14:02:17;8.90;99.90
55203;DHT22;41077;52.956;6.796;2023-04-15T14:04:42;8.90;99.90
55203;DHT22;41077;52.956;6.796;2023-04-15T14:07:08;8.90;99.90
55203;DHT22;41077;52.956;6.796;2023-04-15T14:09:34;8.90;99.90
55203;DHT22;41077;52.956;6.796;2023-04-15T14:12:00;8.90;99.90
55203;DHT22;41077;52.956;6.796;2023-04-15T14:14:26;9.00;99.90
55203;DHT22;41077;52.956;6.796;2023-04-15T14:16:53;9.00;99.90
55203;DHT22;41077;52.956;6.796;2023-04-15T14:19:19;9.00;99.90
55203;DHT22;41077;52.956;6.796;2023-04-15T14:21:44;8.90;99.90
55203;DHT22;41077;52.956;6.796;2023-04-15T14:24:10;8.90;99.90
55203;DHT22;41077;52.956;6.796;2023-04-15T14:26:36;8.90;99.90
55203;DHT22;41077;52.956;6.796;2023-04-15T14:29:02;8.90;99.90
55203;DHT22;41077;52.956;6.796;2023-04-15T14:31:28;8.90;99.90
55203;DHT22;41077;52.956;6.796;2023-04-15T14:33:53;8.90;99.90
55203;DHT22;41077;52.956;6.796;2023-04-15T14:36:19;8.90;99.90
55203;DHT22;41077;52.956;6.796;2023-04-15T14:38:45;8.90;99.90
55203;DHT22;41077;52.956;6.796;2023-04-15T14:41:10;8.90;99.90
55203;DHT22;41077;52.956;6.796;2023-04-15T14:43:36;8.90;99.90
55203;DHT22;41077;52.956;6.796;2023-04-15T14:46:02;8.80;99.90
55203;DHT22;41077;52.956;6.796;2023-04-15T14:48:30;8.90;99.90
55203;DHT22;41077;52.956;6.796;2023-04-15T14:50:56;8.90;99.90
55203;DHT22;41077;52.956;6.796;2023-04-15T14:53:22;8.90;99.90
55203;DHT22;41077;52.956;6.796;2023-04-15T14:55:48;8.90;99.90
55203;DHT22;41077;52.956;6.796;2023-04-15T14:58:13;8.80;99.90
55203;DHT22;41077;52.956;6.796;2023-04-15T15:00:39;8.80;99.90
55203;DHT22;41077;52.956;6.796;2023-04-15T15:03:10;8.80;99.90
55203;DHT22;41077;52.956;6.796;2023-04-15T15:05:44;8.80;99.90
55203;DHT22;41077;52.956;6.796;2023-04-15T15:08:10;8.80;99.90
55203;DHT22;41077;52.956;6.796;2023-04-15T15:10:36;8.70;99.90
55203;DHT22;41077;52.956;6.796;2023-04-15T15:13:07;8.80;99.90
55203;DHT22;41077;52.956;6.796;2023-04-15T15:15:34;8.70;99.90
55203;DHT22;41077;52.956;6.796;2023-04-15T15:18:01;8.70;99.90
55203;DHT22;41077;52.956;6.796;2023-04-15T15:20:27;8.70;99.90
55203;DHT22;41077;52.956;6.796;2023-04-15T15:22:53;8.70;99.90
55203;DHT22;41077;52.956;6.796;2023-04-15T15:25:19;8.80;99.90
55203;DHT22;41077;52.956;6.796;2023-04-15T15:27:45;8.80;99.90
55203;DHT22;41077;52.956;6.796;2023-04-15T15:30:11;8.80;99.90
55203;DHT22;41077;52.956;6.796;2023-04-15T15:32:40;8.80;99.90
55203;DHT22;41077;52.956;6.796;2023-04-15T15:35:07;8.80;99.90
55203;DHT22;41077;52.956;6.796;2023-04-15T15:37:34;8.70;99.90
55203;DHT22;41077;52.956;6.796;2023-04-15T15:40:03;8.60;99.90
55203;DHT22;41077;52.956;6.796;2023-04-15T15:42:30;8.60;99.90
55203;DHT22;41077;52.956;6.796;2023-04-15T15:44:56;8.60;99.90
55203;DHT22;41077;52.956;6.796;2023-04-15T15:47:22;8.60;99.90